createdAt,value
2022-11-27T00:01:29.288Z,1.30
2022-11-27T00:03:57.274Z,1.08
2022-11-27T00:06:26.658Z,0.98
2022-11-27T00:08:57.262Z,2.78
2022-11-27T00:11:26.721Z,1.40
2022-11-27T00:13:54.366Z,1.65
2022-11-27T00:16:23.258Z,1.05
2022-11-27T00:18:51.321Z,2.10
2022-11-27T00:21:22.837Z,2.03
2022-11-27T00:23:52.088Z,1.60
2022-11-27T00:26:19.922Z,1.95
2022-11-27T00:28:47.694Z,1.90
2022-11-27T00:31:17.421Z,1.58
2022-11-27T00:33:45.584Z,1.75
2022-11-27T00:36:14.471Z,1.93
2022-11-27T00:38:42.887Z,1.83
2022-11-27T00:41:12.867Z,1.85
2022-11-27T00:43:44.551Z,2.50
2022-11-27T00:46:14.061Z,2.42
2022-11-27T00:48:42.902Z,2.00
2022-11-27T00:51:13.415Z,3.10
2022-11-27T00:53:41.851Z,2.50
2022-11-27T00:56:12.856Z,2.53
2022-11-27T00:58:40.489Z,2.30
2022-11-27T01:01:08.574Z,2.40
2022-11-27T01:03:36.151Z,2.50
2022-11-27T01:06:05.554Z,2.35
2022-11-27T01:08:34.260Z,2.88
2022-11-27T01:11:02.555Z,2.40
2022-11-27T01:13:33.996Z,2.47
2022-11-27T01:16:04.364Z,2.80
2022-11-27T01:18:33.040Z,2.80
2022-11-27T01:21:01.488Z,2.35
2022-11-27T01:23:30.097Z,2.72
2022-11-27T01:26:00.312Z,3.00
2022-11-27T01:28:27.920Z,2.33
2022-11-27T01:30:56.006Z,2.80
2022-11-27T01:33:24.074Z,2.58
2022-11-27T01:35:56.736Z,2.88
2022-11-27T01:38:25.194Z,2.50
2022-11-27T01:40:58.831Z,2.45
2022-11-27T01:43:45.157Z,2.88
2022-11-27T01:46:31.164Z,1.85
2022-11-27T01:49:10.908Z,2.95
2022-11-27T01:52:01.391Z,2.50
2022-11-27T01:54:45.702Z,3.15
2022-11-27T01:57:22.544Z,2.75
2022-11-27T01:59:52.179Z,2.00
2022-11-27T02:02:19.735Z,2.45
2022-11-27T02:04:47.268Z,2.10
2022-11-27T02:07:15.021Z,2.63
2022-11-27T02:09:42.715Z,2.95
2022-11-27T02:12:26.900Z,2.35
2022-11-27T02:15:26.628Z,2.88
2022-11-27T02:18:15.669Z,2.40
2022-11-27T02:20:52.776Z,2.35
2022-11-27T02:23:38.567Z,3.30
2022-11-27T02:26:24.863Z,3.17
2022-11-27T02:29:03.700Z,3.00
2022-11-27T02:31:53.114Z,2.27
2022-11-27T02:34:36.193Z,2.60
2022-11-27T02:37:22.056Z,2.92
2022-11-27T02:39:58.608Z,2.28
2022-11-27T02:42:29.144Z,1.73
2022-11-27T02:45:07.952Z,1.73
2022-11-27T02:47:36.468Z,2.72
2022-11-27T02:50:05.488Z,2.10
2022-11-27T02:52:33.611Z,1.80
2022-11-27T02:55:07.165Z,2.88
2022-11-27T02:57:37.849Z,2.27
2022-11-27T03:00:06.936Z,1.83
2022-11-27T03:02:39.861Z,1.77
2022-11-27T03:05:12.438Z,1.77
2022-11-27T03:07:50.321Z,2.42
2022-11-27T03:10:33.916Z,1.83
2022-11-27T03:13:03.407Z,2.10
2022-11-27T03:15:42.112Z,1.88
2022-11-27T03:18:23.157Z,1.45
2022-11-27T03:20:59.409Z,2.25
2022-11-27T03:23:39.227Z,2.07
2022-11-27T03:26:19.564Z,2.30
2022-11-27T03:28:48.379Z,1.75
2022-11-27T03:31:16.146Z,1.60
2022-11-27T03:33:44.237Z,1.70
2022-11-27T03:36:20.444Z,1.70
2022-11-27T03:38:49.741Z,1.85
2022-11-27T03:41:51.179Z,1.80
2022-11-27T03:44:30.869Z,1.40
2022-11-27T03:47:26.258Z,1.50
2022-11-27T03:49:59.783Z,2.13
2022-11-27T03:52:38.839Z,1.60
2022-11-27T03:55:27.548Z,1.70
2022-11-27T03:58:02.034Z,1.67
2022-11-27T04:00:39.467Z,1.30
2022-11-27T04:03:13.271Z,1.60
2022-11-27T04:05:41.208Z,1.77
2022-11-27T04:08:08.753Z,1.25
2022-11-27T04:10:36.406Z,1.77
2022-11-27T04:13:04.008Z,1.10
2022-11-27T04:15:31.605Z,1.50
2022-11-27T04:17:59.204Z,1.50
2022-11-27T04:20:26.842Z,1.80
2022-11-27T04:22:54.407Z,1.50
2022-11-27T04:25:22.445Z,1.63
2022-11-27T04:27:50.541Z,1.67
2022-11-27T04:30:18.812Z,1.55
2022-11-27T04:32:46.487Z,1.77
2022-11-27T04:35:14.443Z,1.65
2022-11-27T04:37:42.016Z,1.67
2022-11-27T04:40:10.558Z,2.20
2022-11-27T04:42:38.050Z,2.03
2022-11-27T04:45:06.213Z,2.10
2022-11-27T04:47:33.744Z,2.17
2022-11-27T04:50:01.303Z,1.63
2022-11-27T04:52:28.790Z,1.97
2022-11-27T04:55:00.043Z,2.30
2022-11-27T04:57:28.503Z,2.10
2022-11-27T04:59:56.321Z,2.38
2022-11-27T05:02:23.972Z,1.98
2022-11-27T05:04:51.503Z,2.23
2022-11-27T05:07:19.126Z,2.10
2022-11-27T05:09:46.752Z,1.85
2022-11-27T05:12:14.360Z,2.70
2022-11-27T05:14:42.237Z,1.73
2022-11-27T05:17:10.348Z,2.07
2022-11-27T05:19:37.947Z,2.88
2022-11-27T05:22:05.789Z,1.83
2022-11-27T05:24:33.584Z,2.42
2022-11-27T05:27:01.211Z,1.98
2022-11-27T05:29:28.760Z,2.70
2022-11-27T05:31:56.498Z,1.92
2022-11-27T05:34:24.194Z,2.03
2022-11-27T05:36:51.782Z,3.10
2022-11-27T05:39:19.274Z,2.45
2022-11-27T05:41:46.987Z,2.30
2022-11-27T05:44:15.461Z,2.15
2022-11-27T05:46:46.381Z,2.42
2022-11-27T05:49:15.774Z,2.17
2022-11-27T05:51:50.392Z,2.38
2022-11-27T05:54:19.516Z,1.97
2022-11-27T05:56:47.143Z,2.17
2022-11-27T05:59:15.192Z,2.42
2022-11-27T06:01:43.371Z,3.45
2022-11-27T06:04:11.089Z,2.63
2022-11-27T06:06:38.693Z,2.53
2022-11-27T06:09:12.162Z,2.20
2022-11-27T06:11:41.593Z,1.65
2022-11-27T06:14:10.053Z,1.80
2022-11-27T06:16:38.212Z,2.92
2022-11-27T06:19:05.870Z,2.03
2022-11-27T06:21:33.461Z,2.10
2022-11-27T06:24:00.968Z,2.20
2022-11-27T06:26:30.908Z,2.40
2022-11-27T06:29:00.341Z,2.25
2022-11-27T06:31:30.792Z,2.27
2022-11-27T06:33:58.782Z,1.98
2022-11-27T06:36:32.024Z,1.50
2022-11-27T06:39:00.080Z,2.10
2022-11-27T06:41:28.699Z,1.65
2022-11-27T06:43:58.961Z,1.93
2022-11-27T06:46:27.652Z,1.75
2022-11-27T06:48:55.257Z,1.95
2022-11-27T06:51:25.495Z,2.30
2022-11-27T06:53:53.657Z,2.13
2022-11-27T06:56:27.384Z,2.30
2022-11-27T06:58:57.833Z,2.40
2022-11-27T07:01:27.918Z,2.30
2022-11-27T07:03:56.495Z,2.45
2022-11-27T07:06:26.709Z,2.00
2022-11-27T07:08:55.572Z,2.13
2022-11-27T07:11:26.365Z,2.45
2022-11-27T07:13:56.400Z,2.33
2022-11-27T07:16:24.779Z,2.20
2022-11-27T07:18:55.551Z,2.03
2022-11-27T07:21:23.574Z,2.03
2022-11-27T07:23:51.477Z,2.17
2022-11-27T07:26:25.851Z,2.45
2022-11-27T07:28:54.116Z,1.38
2022-11-27T07:31:29.051Z,1.83
2022-11-27T07:33:57.420Z,2.07
2022-11-27T07:36:28.404Z,2.38
2022-11-27T07:38:56.692Z,2.10
2022-11-27T07:41:26.964Z,2.28
2022-11-27T07:43:58.393Z,1.90
2022-11-27T07:46:26.079Z,2.20
2022-11-27T07:48:53.642Z,1.65
2022-11-27T07:51:22.871Z,2.13
2022-11-27T07:53:53.285Z,2.53
2022-11-27T07:56:21.629Z,2.58
2022-11-27T07:58:49.769Z,2.27
2022-11-27T08:01:19.600Z,1.73
2022-11-27T08:03:47.499Z,2.17
2022-11-27T08:06:33.382Z,2.40
2022-11-27T08:09:01.074Z,3.08
2022-11-27T08:11:32.883Z,1.97
2022-11-27T08:14:05.665Z,2.03
2022-11-27T08:16:34.776Z,1.60
2022-11-27T08:19:02.622Z,1.75
2022-11-27T08:21:31.206Z,1.92
2022-11-27T08:23:58.906Z,1.77
2022-11-27T08:26:29.850Z,2.00
2022-11-27T08:28:58.470Z,2.10
2022-11-27T08:31:26.346Z,2.60
2022-11-27T08:33:54.135Z,2.33
2022-11-27T08:36:22.809Z,2.30
2022-11-27T08:38:50.380Z,1.75
2022-11-27T08:41:18.238Z,2.25
2022-11-27T08:43:45.808Z,1.88
2022-11-27T08:46:13.585Z,1.85
2022-11-27T08:48:42.026Z,2.10
2022-11-27T08:51:13.264Z,2.42
2022-11-27T08:53:41.699Z,2.00
2022-11-27T08:56:16.141Z,2.28
2022-11-27T08:58:44.895Z,1.67
2022-11-27T09:01:19.514Z,2.00
2022-11-27T09:03:48.172Z,1.50
2022-11-27T09:06:18.651Z,1.73
2022-11-27T09:08:46.335Z,1.65
2022-11-27T09:11:16.431Z,1.42
2022-11-27T09:13:44.538Z,1.90
2022-11-27T09:16:18.216Z,1.58
2022-11-27T09:18:47.624Z,2.03
2022-11-27T09:21:17.249Z,1.60
2022-11-27T09:23:44.871Z,2.08
2022-11-27T09:26:15.196Z,1.70
2022-11-27T09:28:44.595Z,2.20
2022-11-27T09:31:15.527Z,1.48
2022-11-27T09:33:43.458Z,1.42
2022-11-27T09:36:17.069Z,2.33
2022-11-27T09:38:45.438Z,1.50
2022-11-27T09:41:28.427Z,2.50
2022-11-27T09:44:03.615Z,1.95
2022-11-27T09:46:36.069Z,1.95
2022-11-27T09:49:08.292Z,1.95
2022-11-27T09:51:42.316Z,1.83
2022-11-27T09:54:26.749Z,1.42
2022-11-27T09:56:56.453Z,1.90
2022-11-27T09:59:46.675Z,2.22
2022-11-27T10:02:21.335Z,1.67
2022-11-27T10:05:12.947Z,1.70
2022-11-27T10:07:54.312Z,1.52
2022-11-27T10:10:46.853Z,1.80
2022-11-27T10:13:17.561Z,1.75
2022-11-27T10:15:56.568Z,2.08
2022-11-27T10:18:30.243Z,1.70
2022-11-27T10:21:13.540Z,2.05
2022-11-27T10:24:03.325Z,1.98
2022-11-27T10:26:45.615Z,1.55
2022-11-27T10:29:13.387Z,1.98
2022-11-27T10:31:48.605Z,1.53
2022-11-27T10:34:38.751Z,1.70
2022-11-27T10:37:17.586Z,1.77
2022-11-27T10:39:56.996Z,1.55
2022-11-27T10:42:40.952Z,1.90
2022-11-27T10:45:30.228Z,1.60
2022-11-27T10:47:57.952Z,1.55
2022-11-27T10:50:25.566Z,2.42
2022-11-27T10:52:57.437Z,2.20
2022-11-27T10:55:53.569Z,2.00
2022-11-27T10:58:34.743Z,2.10
2022-11-27T11:01:09.149Z,1.70
2022-11-27T11:03:37.152Z,1.50
2022-11-27T11:06:24.555Z,1.88
2022-11-27T11:09:12.639Z,1.88
2022-11-27T11:11:40.356Z,1.60
2022-11-27T11:14:22.943Z,2.13
2022-11-27T11:16:51.456Z,1.60
2022-11-27T11:19:23.659Z,1.90
2022-11-27T11:21:52.550Z,1.50
2022-11-27T11:24:29.447Z,2.17
2022-11-27T11:27:01.232Z,1.73
2022-11-27T11:29:36.903Z,2.22
2022-11-27T11:32:14.768Z,1.45
2022-11-27T11:34:57.685Z,1.77
2022-11-27T11:37:34.586Z,1.90
2022-11-27T11:40:23.676Z,1.98
2022-11-27T11:43:31.139Z,2.13
2022-11-27T11:46:08.694Z,1.60
2022-11-27T11:48:37.897Z,1.77
2022-11-27T11:51:16.107Z,2.20
2022-11-27T11:53:45.678Z,2.08
2022-11-27T11:56:26.287Z,1.60
2022-11-27T11:58:58.797Z,1.73
2022-11-27T12:01:47.497Z,1.90
2022-11-27T12:04:33.891Z,1.67
2022-11-27T12:07:04.545Z,2.08
2022-11-27T12:09:44.220Z,1.70
2022-11-27T12:12:32.033Z,1.80
2022-11-27T12:15:13.336Z,2.05
2022-11-27T12:18:13.296Z,1.57
2022-11-27T12:20:49.723Z,1.75
2022-11-27T12:23:29.487Z,1.80
2022-11-27T12:26:27.257Z,1.70
2022-11-27T12:29:04.096Z,2.03
2022-11-27T12:31:48.754Z,1.93
2022-11-27T12:34:16.336Z,1.73
2022-11-27T12:37:22.674Z,1.52
2022-11-27T12:40:12.084Z,1.73
2022-11-27T12:42:48.516Z,1.55
2022-11-27T12:45:34.569Z,1.37
2022-11-27T12:48:34.976Z,2.17
2022-11-27T12:51:09.345Z,1.80
2022-11-27T12:53:45.529Z,1.98
2022-11-27T12:56:26.811Z,1.77
2022-11-27T12:59:04.853Z,1.47
2022-11-27T13:01:45.599Z,1.77
2022-11-27T13:04:19.166Z,1.70
2022-11-27T13:07:12.789Z,2.08
2022-11-27T13:10:03.349Z,1.40
2022-11-27T13:12:39.613Z,1.40
2022-11-27T13:15:17.205Z,1.42
2022-11-27T13:17:49.452Z,1.60
2022-11-27T13:20:24.549Z,2.28
2022-11-27T13:22:52.665Z,1.67
2022-11-27T13:25:21.813Z,2.47
2022-11-27T13:27:53.050Z,2.10
2022-11-27T13:30:24.988Z,1.60
2022-11-27T13:32:56.366Z,2.38
2022-11-27T13:35:44.309Z,1.70
2022-11-27T13:38:25.452Z,1.30
2022-11-27T13:40:59.468Z,1.73
2022-11-27T13:43:33.982Z,2.15
2022-11-27T13:46:05.044Z,1.77
2022-11-27T13:48:41.808Z,1.50
2022-11-27T13:51:11.737Z,1.67
2022-11-27T13:53:42.542Z,1.98
2022-11-27T13:56:10.321Z,2.55
2022-11-27T13:58:41.059Z,1.67
2022-11-27T14:01:21.621Z,2.22
2022-11-27T14:03:50.252Z,1.80
2022-11-27T14:06:25.101Z,1.80
2022-11-27T14:09:04.638Z,2.05
2022-11-27T14:11:40.318Z,1.77
2022-11-27T14:14:16.112Z,1.88
2022-11-27T14:16:54.614Z,2.17
2022-11-27T14:19:30.661Z,1.85
2022-11-27T14:22:02.166Z,2.35
2022-11-27T14:24:44.092Z,1.45
2022-11-27T14:27:18.339Z,1.35
2022-11-27T14:29:46.704Z,1.60
2022-11-27T14:32:16.220Z,2.10
2022-11-27T14:34:44.965Z,1.60
2022-11-27T14:37:24.966Z,2.22
2022-11-27T14:39:52.941Z,1.80
2022-11-27T14:42:28.874Z,1.80
2022-11-27T14:45:21.442Z,1.52
2022-11-27T14:47:54.720Z,1.58
2022-11-27T14:50:22.989Z,2.10
2022-11-27T14:52:56.630Z,2.25
2022-11-27T14:55:28.891Z,1.77
2022-11-27T14:57:59.384Z,1.80
2022-11-27T15:00:27.649Z,1.65
2022-11-27T15:02:55.330Z,2.05
2022-11-27T15:05:28.876Z,1.77
2022-11-27T15:07:58.351Z,1.73
2022-11-27T15:10:37.170Z,1.40
2022-11-27T15:13:07.508Z,1.98
2022-11-27T15:15:44.810Z,1.67
2022-11-27T15:18:22.672Z,1.13
2022-11-27T15:20:51.251Z,1.53
2022-11-27T15:23:21.525Z,1.60
2022-11-27T15:26:08.328Z,1.80
2022-11-27T15:28:43.432Z,1.50
2022-11-27T15:31:37.616Z,1.30
2022-11-27T15:34:06.654Z,1.60
2022-11-27T15:36:38.603Z,1.77
2022-11-27T15:39:32.025Z,2.30
2022-11-27T15:42:02.406Z,1.40
2022-11-27T15:44:32.903Z,1.42
2022-11-27T15:47:02.679Z,1.67
2022-11-27T15:49:30.865Z,1.67
2022-11-27T15:51:58.551Z,1.80
2022-11-27T15:54:26.730Z,1.40
2022-11-27T15:56:54.298Z,1.95
2022-11-27T15:59:22.114Z,1.40
2022-11-27T16:01:49.897Z,2.20
2022-11-27T16:04:17.690Z,1.73
2022-11-27T16:06:45.894Z,1.77
2022-11-27T16:09:13.703Z,2.05
2022-11-27T16:11:41.685Z,1.20
2022-11-27T16:14:09.513Z,1.45
2022-11-27T16:16:38.661Z,1.90
2022-11-27T16:19:06.578Z,1.10
2022-11-27T16:21:35.559Z,1.17
2022-11-27T16:24:05.950Z,1.00
2022-11-27T16:26:34.909Z,1.25
2022-11-27T16:29:02.500Z,1.90
2022-11-27T16:31:30.487Z,1.02
2022-11-27T16:33:58.249Z,1.55
2022-11-27T16:36:26.436Z,0.73
2022-11-27T16:38:55.460Z,1.02
2022-11-27T16:41:25.590Z,0.80
2022-11-27T16:43:56.873Z,0.88
2022-11-27T16:46:30.604Z,0.50
2022-11-27T16:48:59.423Z,0.70
2022-11-27T16:51:32.643Z,0.93
2022-11-27T16:54:05.375Z,0.80
2022-11-27T16:56:35.112Z,0.50
2022-11-27T16:59:13.654Z,0.50
2022-11-27T17:01:42.420Z,0.67
2022-11-27T17:04:18.355Z,0.40
2022-11-27T17:06:47.085Z,0.30
2022-11-27T17:09:15.364Z,0.35
2022-11-27T17:11:45.967Z,0.60
2022-11-27T17:14:13.772Z,0.20
2022-11-27T17:16:42.899Z,0.50
2022-11-27T17:19:13.582Z,0.50
2022-11-27T17:21:42.319Z,0.30
2022-11-27T17:24:16.167Z,0.30
2022-11-27T17:26:47.326Z,0.60
2022-11-27T17:29:17.912Z,0.40
2022-11-27T17:31:45.628Z,0.40
2022-11-27T17:34:16.049Z,0.40
2022-11-27T17:36:45.422Z,0.50
2022-11-27T17:39:15.408Z,0.40
2022-11-27T17:41:46.930Z,0.50
2022-11-27T17:44:14.689Z,0.70
2022-11-27T17:46:48.144Z,0.60
2022-11-27T17:49:16.224Z,0.40
2022-11-27T17:51:45.487Z,0.80
2022-11-27T17:54:15.030Z,0.80
2022-11-27T17:56:42.938Z,0.73
2022-11-27T17:59:10.813Z,0.60
2022-11-27T18:01:39.676Z,0.70
2022-11-27T18:04:07.827Z,0.70
2022-11-27T18:06:36.538Z,2.25
2022-11-27T18:09:04.517Z,0.75
2022-11-27T18:11:33.962Z,1.35
2022-11-27T18:14:02.321Z,0.80
2022-11-27T18:16:33.846Z,0.93
2022-11-27T18:19:07.107Z,0.98
2022-11-27T18:21:35.640Z,1.25
2022-11-27T18:27:10.800Z,0.80
2022-11-27T18:29:42.280Z,0.50
2022-11-27T18:32:11.937Z,0.63
2022-11-27T18:34:40.499Z,0.90
2022-11-27T18:37:08.400Z,0.68
2022-11-27T18:39:36.931Z,0.77
2022-11-27T18:42:05.513Z,0.77
2022-11-27T18:44:37.293Z,0.60
2022-11-27T18:47:10.243Z,0.70
2022-11-27T18:49:39.489Z,0.70
2022-11-27T18:52:08.446Z,0.60
2022-11-27T18:54:37.427Z,0.87
2022-11-27T18:57:07.134Z,0.52
2022-11-27T18:59:35.311Z,0.50
2022-11-27T19:02:04.532Z,1.67
2022-11-27T19:04:36.354Z,0.60
2022-11-27T19:07:04.022Z,0.97
2022-11-27T19:09:31.641Z,0.70
2022-11-27T19:11:59.247Z,0.80
2022-11-27T19:14:26.841Z,0.55
2022-11-27T19:16:54.647Z,0.50
2022-11-27T19:22:11.309Z,0.93
2022-11-27T19:24:40.770Z,1.08
2022-11-27T19:27:08.576Z,0.63
2022-11-27T19:29:36.127Z,1.08
2022-11-27T19:32:04.058Z,0.93
2022-11-27T19:34:31.662Z,1.20
2022-11-27T19:36:59.445Z,1.88
2022-11-27T19:39:27.946Z,1.20
2022-11-27T19:41:57.947Z,1.13
2022-11-27T19:44:26.568Z,0.87
2022-11-27T19:46:54.167Z,0.98
2022-11-27T19:49:21.924Z,1.00
2022-11-27T19:51:49.909Z,0.80
2022-11-27T19:54:20.594Z,0.98
2022-11-27T19:56:49.560Z,0.80
2022-11-27T19:59:22.896Z,0.82
2022-11-27T20:01:54.457Z,1.33
2022-11-27T20:04:26.896Z,0.90
2022-11-27T20:06:55.371Z,0.65
2022-11-27T20:09:23.498Z,1.00
2022-11-27T20:11:51.324Z,0.82
2022-11-27T20:14:19.612Z,0.82
2022-11-27T20:16:47.714Z,0.70
2022-11-27T20:19:16.021Z,1.17
2022-11-27T20:21:45.501Z,0.80
2022-11-27T20:24:14.815Z,0.90
2022-11-27T20:26:43.317Z,0.93
2022-11-27T20:29:13.226Z,1.20
2022-11-27T20:31:42.164Z,0.90
2022-11-27T20:34:16.601Z,0.87
2022-11-27T20:36:44.260Z,0.93
2022-11-27T20:39:16.272Z,1.55
2022-11-27T20:41:47.203Z,0.57
2022-11-27T20:44:15.897Z,0.77
2022-11-27T20:46:44.400Z,0.70
2022-11-27T20:49:12.206Z,0.80
2022-11-27T20:51:40.056Z,0.80
2022-11-27T20:54:10.882Z,0.57
2022-11-27T20:56:39.010Z,0.63
2022-11-27T20:59:07.967Z,1.07
2022-11-27T21:01:37.496Z,1.30
2022-11-27T21:04:15.982Z,1.02
2022-11-27T21:06:44.353Z,1.30
2022-11-27T21:09:14.112Z,0.93
2022-11-27T21:11:43.465Z,1.30
2022-11-27T21:14:13.815Z,1.52
2022-11-27T21:16:47.031Z,1.65
2022-11-27T21:19:23.007Z,1.58
2022-11-27T21:21:51.982Z,1.20
2022-11-27T21:24:20.964Z,1.10
2022-11-27T21:26:49.221Z,1.10
2022-11-27T21:29:17.394Z,1.55
2022-11-27T21:31:47.223Z,1.50
2022-11-27T21:34:15.636Z,1.70
2022-11-27T21:36:44.895Z,2.00
2022-11-27T21:39:20.146Z,1.70
2022-11-27T21:41:50.225Z,1.42
2022-11-27T21:44:20.507Z,1.50
2022-11-27T21:46:49.729Z,1.30
2022-11-27T21:49:20.570Z,1.40
2022-11-27T21:51:54.787Z,1.45
2022-11-27T21:54:29.980Z,1.60
2022-11-27T21:56:58.274Z,1.88
2022-11-27T21:59:25.840Z,2.25
2022-11-27T22:01:57.203Z,1.60
2022-11-27T22:04:25.398Z,1.50
2022-11-27T22:06:53.310Z,1.38
2022-11-27T22:09:21.011Z,1.38
2022-11-27T22:11:48.604Z,1.77
2022-11-27T22:14:16.944Z,2.10
2022-11-27T22:16:46.443Z,2.45
2022-11-27T22:19:16.591Z,3.65
2022-11-27T22:21:44.795Z,2.97
2022-11-27T22:24:19.036Z,2.70
2022-11-27T22:26:50.510Z,2.00
2022-11-27T22:29:18.375Z,2.00
2022-11-27T22:31:45.897Z,1.70
2022-11-27T22:34:17.099Z,1.80
2022-11-27T22:36:45.579Z,1.42
2022-11-27T22:39:13.629Z,1.43
2022-11-27T22:41:42.161Z,1.70
2022-11-27T22:44:15.345Z,1.45
2022-11-27T22:46:43.749Z,1.95
2022-11-27T22:49:13.929Z,1.58
2022-11-27T22:51:42.008Z,1.37
2022-11-27T22:54:13.293Z,1.40
2022-11-27T22:56:41.546Z,1.60
2022-11-27T23:01:58.622Z,1.30
2022-11-27T23:04:27.378Z,1.17
2022-11-27T23:06:55.038Z,1.48
2022-11-27T23:09:22.863Z,1.15
2022-11-27T23:11:51.033Z,1.10
2022-11-27T23:14:18.683Z,1.27
2022-11-27T23:16:46.422Z,1.10
2022-11-27T23:19:14.093Z,1.40
2022-11-27T23:21:41.996Z,1.13
2022-11-27T23:24:13.569Z,0.98
2022-11-27T23:26:41.577Z,1.10
2022-11-27T23:29:09.483Z,1.10
2022-11-27T23:31:37.480Z,0.88
2022-11-27T23:34:08.155Z,1.40
2022-11-27T23:36:36.198Z,0.95
2022-11-27T23:39:06.169Z,0.65
2022-11-27T23:41:34.003Z,0.97
2022-11-27T23:44:02.251Z,0.68
2022-11-27T23:46:30.646Z,0.60
2022-11-27T23:49:00.187Z,1.00
2022-11-27T23:51:31.431Z,0.65
2022-11-27T23:54:00.143Z,0.60
2022-11-27T23:56:30.404Z,0.85
2022-11-27T23:58:59.511Z,0.47
